Nearby METAR Reports

 

KL35 - Big Bear City, California, USA
Distance from station: WNW 2mi, 4km
Updated: 12/11/2018 9:15pm
Clear
Clear
 Wind from calm
Wind: Calm
Temperature: 27°F , -3°C
Dew Point: 21°F , -6°C
Humidity: 80%
Barometer: 30.18 inHg , 1022 hPa
Clouds: Clear
Visibility: 10 miles , 16 km
2018/12/12 05:15 KL35 120515Z AUTO 00000KT 10SM CLR M03/M06 A3018 RMK AO2
KSBD - San Bernardino, California, USA
Distance from station: WSW 28mi, 45km
Updated: 12/11/2018 8:50pm
Clear
Clear
 Wind from calm
Wind: Calm
Temperature: 54°F , 12°C
Dew Point: 37°F , 3°C
Humidity: 54%
Barometer: 30.07 inHg , 1018.3 hPa
Clouds: Clear
Visibility: 7 miles , 11 km
2018/12/12 04:50 KSBD 120450Z 00000KT 7SM SKC 12/03 A3007 RMK LAST
 
KVCV - Victorville, California, USA
Distance from station: NW 40mi, 64km
Updated: 12/11/2018 7:45pm
NOT Current
Clear
Clear
 Wind from calm
Wind: Calm
Barometer: 30.12 inHg , 1020 hPa
Clouds: Clear
Visibility: 10 miles , 16 km
2018/12/12 03:45 KVCV 120345Z 00000KT 10SM SKC A3012
KNXP - Twentynine Palms, California, USA
Distance from station: E 37mi, 59km
Updated: 12/11/2018 8:56pm
Clear
Clear
 Wind from WNW
Wind: WNW 9 mph , 15 km/h
Temperature: 48°F , 9°C
Wind Chill: 44°F , 7°C
Dew Point: 36°F , 2°C
Humidity: 62%
Barometer: 30.16 inHg , 1021.3 hPa
Clouds: Clear
Visibility: 10 miles , 16 km
2018/12/12 04:56 KNXP 120456Z AUTO 29008KT 10SM CLR 09/02 A3016 RMK AO2 SLP196 T00940017
 
KPSP - Palm Springs, California, USA
Distance from station: SSE 35mi, 57km
Updated: 12/11/2018 8:53pm
Clear
Clear
 Wind from WSW
Wind: WSW 7 mph , 11 km/h
Temperature: 63°F , 17°C
Dew Point: 36°F , 2°C
Humidity: 37%
Barometer: 30.05 inHg , 1017.6 hPa
Clouds: Clear
Visibility: 10 miles , 16 km
2018/12/12 04:53 KPSP 120453Z 25006KT 10SM CLR 17/02 A3005 RMK AO2 SLP177 T01670022
KONT - Ontario, California, USA
Distance from station: WSW 46mi, 74km
Updated: 12/11/2018 8:53pm
Clear
Clear
 Wind from SW
Wind: SW 5 mph , 7 km/h
Temperature: 55°F , 13°C
Dew Point: 46°F , 8°C
Humidity: 72%
Barometer: 30.06 inHg , 1017.9 hPa
Clouds: Clear
Visibility: 9 miles , 14 km
2018/12/12 04:53 KONT 120453Z 23004KT 9SM CLR 13/08 A3006 RMK AO2 SLP179 T01330083
 
KRIV - Riverside/March, California, USA
Distance from station: SW 37mi, 60km
Updated: 12/11/2018 8:58pm
Clear
Clear
 Wind from calm
Wind: Calm
Temperature: 48°F , 9°C
Dew Point: 41°F , 5°C
Humidity: 76%
Barometer: 30.07 inHg , 1018.3 hPa
Clouds: Clear
Visibility: 10 miles , 16 km
2018/12/12 04:58 KRIV 120458Z AUTO 00000KT 10SM CLR 09/05 A3007 RMK AO2 SLP183 T00890045
KRAL - Riverside, California, USA
Distance from station: WSW 42mi, 68km
Updated: 12/11/2018 8:53pm
Clear
Clear
 Wind from calm
Wind: Calm
Temperature: 55°F , 13°C
Dew Point: 48°F , 9°C
Humidity: 77%
Barometer: 30.07 inHg , 1018.3 hPa
Clouds: Clear
Visibility: 10 miles , 16 km
2018/12/12 04:53 KRAL 120453Z AUTO 00000KT 10SM CLR 13/09 A3007 RMK AO2 SLP173 T01330094
 
KDAG - Daggett, California, USA
Distance from station: N 41mi, 66km
Updated: 12/11/2018 8:50pm
Clear
Clear
 Wind from W
Wind: W 9 mph , 15 km/h
Temperature: 45°F , 7°C
Wind Chill: 40°F , 4°C
Dew Point: 36°F , 2°C
Humidity: 71%
Barometer: 30.11 inHg , 1019.6 hPa
Clouds: Clear
Visibility: 10 miles , 16 km
2018/12/12 04:50 KDAG 120450Z AUTO 26008KT 10SM CLR 07/02 A3011 RMK AO2 SLP193 T00670022
KCNO - Chino, California, USA
Distance from station: WSW 50mi, 80km
Updated: 12/11/2018 8:53pm
Clear
Clear
 Wind from calm
Wind: Calm
Temperature: 55°F , 13°C
Dew Point: 52°F , 11°C
Humidity: 88%
Barometer: 30.08 inHg , 1018.6 hPa
Clouds: Clear
Visibility: 10 miles , 16 km
2018/12/12 04:53 KCNO 120453Z 00000KT 10SM CLR 13/11 A3008 RMK AO2 SLP185 LAST T01280106